Portada
METAR-TAF:

METAR-TAF

Aeroports :

Aeroport Internacional de Pequín

Pequín, Xina

latitud: 39-56N, longitud: 116-17E, altitud: 55 m

Observació

L'informe es va fer fa 43 minuts, a les 11:30 UTC
Vent 8 kt del Sud, variant entre Sud/Sud-Est i Sud-Oest
Temperatura 10°C
Humitat 20%
Pressió 1021 hPa
Visibilitat 10 km o més
sense núvols per sota de 1500 mi sense presència de cumulonimbus.

METAR: ZBAA 281130Z 18004MPS 160V230 CAVOK 10/M12 Q1021 NOSIG

Hora: 20:13 (12:13 UTC)

Pronòstic

L'informe es va fer fa 3 hores i 3 minuts, a les 09:10 UTC
Pronòstic vàlid del 28 a les 12 UTC al 29 a les 12 UTC
Vent 8 kt del Sud
Visibilitat 10 km o més
sense núvols per sota de 1500 mi sense presència de cumulonimbus.

TAF: ZBAA 280910Z 2812/2912 18004MPS CAVOK TX17/2907Z TNM01/2821Z

Observacions i pronòstics meteorològics de més de 4000 aeroports (METAR i TAF).

Les estacions disponibles són els punts grocs i vermells al mapa.

Posi el ratolí al punt desitjat per veure el nom de l'estació.

Feu clic per veure les observacions i els pronòstics meteorològics.

Per canviar el mapa: feu clic els botons verds amb una creu de color negre per apropar; al botó verd amb un guió per allunyar la imatge; o en les fletxes verdes per a mapes adjacents.


METAR-TAF: